createdAt,value
2022-09-09T00:01:53.923Z,100575.16
2022-09-09T00:04:29.584Z,100568.53
2022-09-09T00:07:08.409Z,100558.41
2022-09-09T00:09:47.093Z,100566.69
2022-09-09T00:12:20.513Z,100526.31
2022-09-09T00:14:53.834Z,100572.16
2022-09-09T00:17:35.572Z,100575.63
2022-09-09T00:20:14.169Z,100564.97
2022-09-09T00:22:49.069Z,100572.31
2022-09-09T00:25:28.912Z,100560.38
2022-09-09T00:27:58.590Z,100560.38
2022-09-09T00:30:29.676Z,100555.91
2022-09-09T00:33:03.886Z,100552.59
2022-09-09T00:35:36.436Z,100552.28
2022-09-09T00:38:16.331Z,100548.66
2022-09-09T00:40:53.287Z,100543.63
2022-09-09T00:43:28.788Z,100570.13
2022-09-09T00:46:09.989Z,100542.03
2022-09-09T00:48:48.255Z,100556.88
2022-09-09T00:51:25.414Z,100557.25
2022-09-09T00:54:11.408Z,100550.25
2022-09-09T00:56:49.197Z,100555.31
2022-09-09T00:59:30.572Z,100554.09
2022-09-09T01:02:02.847Z,100560.63
2022-09-09T01:04:37.211Z,100558.16
2022-09-09T01:07:16.223Z,100565.81
2022-09-09T01:09:54.976Z,100549.06
2022-09-09T01:12:36.342Z,100553.94
2022-09-09T01:15:12.785Z,100556.78
2022-09-09T01:17:59.098Z,100564.03
2022-09-09T01:20:34.742Z,100555.19
2022-09-09T01:23:33.116Z,100539.06
2022-09-09T01:26:35.065Z,100544.13
2022-09-09T01:29:10.198Z,100539.72
2022-09-09T01:31:43.965Z,100546.34
2022-09-09T01:34:14.706Z,100541.25
2022-09-09T01:36:51.969Z,100541.13
2022-09-09T01:39:22.075Z,100536.66
2022-09-09T01:42:00.453Z,100529.41
2022-09-09T01:44:32.959Z,100537.28
2022-09-09T01:47:03.646Z,100505.03
2022-09-09T01:49:33.691Z,100503.09
2022-09-09T01:52:09.986Z,100526.53
2022-09-09T01:54:41.032Z,100524.22
2022-09-09T01:57:23.259Z,100509.03
2022-09-09T02:00:06.450Z,100524.31
2022-09-09T02:02:54.970Z,100513.38
2022-09-09T02:05:37.320Z,100523.53
2022-09-09T02:08:10.430Z,100526.94
2022-09-09T02:10:57.607Z,100525.84
2022-09-09T02:13:41.430Z,100528.38
2022-09-09T02:16:20.593Z,100525.47
2022-09-09T02:18:55.986Z,100408.88
2022-09-09T02:21:36.019Z,100521.41
2022-09-09T02:24:09.965Z,100533.25
2022-09-09T02:26:45.069Z,100513.59
2022-09-09T02:29:18.395Z,100421.97
2022-09-09T02:31:48.763Z,100515.59
2022-09-09T02:34:25.333Z,100512.28
2022-09-09T02:36:57.141Z,100514.38
2022-09-09T02:39:25.811Z,100489.06
2022-09-09T02:41:55.114Z,100514.72
2022-09-09T02:44:33.696Z,100490.75
2022-09-09T02:47:19.872Z,100489.16
2022-09-09T02:50:00.447Z,100494.38
2022-09-09T02:52:41.111Z,100490.59
2022-09-09T02:55:19.043Z,100488.56
2022-09-09T02:57:51.068Z,100491.59
2022-09-09T03:00:27.084Z,100483.03
2022-09-09T03:02:58.148Z,100485.16
2022-09-09T03:05:29.045Z,100480.94
2022-09-09T03:07:58.283Z,100478.75
2022-09-09T03:10:27.483Z,100369.69
2022-09-09T03:12:57.059Z,100473.13
2022-09-09T03:15:30.127Z,100465.53
2022-09-09T03:17:59.985Z,100485.06
2022-09-09T03:20:31.249Z,100484.63
2022-09-09T03:23:01.691Z,100477.31
2022-09-09T03:25:31.034Z,100514.28
2022-09-09T03:28:03.415Z,100482.75
2022-09-09T03:30:33.801Z,100489.91
2022-09-09T03:33:02.959Z,100483.09
2022-09-09T03:35:34.784Z,100488.72
2022-09-09T03:38:05.408Z,100474.59
2022-09-09T03:40:36.869Z,100417.13
2022-09-09T03:43:06.173Z,100444.66
2022-09-09T03:45:37.414Z,100484.03
2022-09-09T03:48:07.311Z,100478.91
2022-09-09T03:50:36.350Z,100474.41
2022-09-09T03:53:07.080Z,100475.22
2022-09-09T03:55:37.488Z,100477.34
2022-09-09T03:58:06.358Z,100474.19
2022-09-09T04:00:35.170Z,100472.50
2022-09-09T04:03:05.259Z,100462.13
2022-09-09T04:05:35.060Z,100462.03
2022-09-09T04:08:06.220Z,100464.72
2022-09-09T04:10:37.269Z,100460.03
2022-09-09T04:13:07.359Z,100462.22
2022-09-09T04:15:36.587Z,100459.81
2022-09-09T04:18:07.537Z,100460.75
2022-09-09T04:20:36.498Z,100458.69
2022-09-09T04:23:05.619Z,100454.69
2022-09-09T04:25:35.163Z,100415.75
2022-09-09T04:28:04.751Z,100452.22
2022-09-09T04:30:33.491Z,100453.56
2022-09-09T04:33:02.391Z,100451.88
2022-09-09T04:35:32.544Z,100438.50
2022-09-09T04:38:01.412Z,100446.31
2022-09-09T04:40:30.661Z,100439.50
2022-09-09T04:43:00.254Z,100438.38
2022-09-09T04:45:29.496Z,100443.38
2022-09-09T04:47:58.402Z,100447.38
2022-09-09T04:50:27.235Z,100440.66
2022-09-09T04:53:03.879Z,100402.56
2022-09-09T04:55:33.580Z,100443.69
2022-09-09T04:58:06.466Z,100436.06
2022-09-09T05:00:36.691Z,100442.75
2022-09-09T05:03:09.506Z,100432.81
2022-09-09T05:05:39.079Z,100433.16
2022-09-09T05:08:11.321Z,100434.78
2022-09-09T05:10:42.948Z,100431.56
2022-09-09T05:13:14.074Z,100425.28
2022-09-09T05:15:44.542Z,100431.00
2022-09-09T05:18:13.760Z,100438.38
2022-09-09T05:20:43.806Z,100424.97
2022-09-09T05:23:14.464Z,100420.78
2022-09-09T05:25:43.742Z,100426.22
2022-09-09T05:28:12.653Z,100421.41
2022-09-09T05:30:42.099Z,100436.66
2022-09-09T05:33:11.259Z,100428.09
2022-09-09T05:35:40.326Z,100424.56
2022-09-09T05:38:09.610Z,100436.16
2022-09-09T05:40:51.236Z,100427.91
2022-09-09T05:43:22.741Z,100436.28
2022-09-09T05:46:02.291Z,100412.38
2022-09-09T05:48:33.260Z,100424.47
2022-09-09T05:51:03.601Z,100417.09
2022-09-09T05:53:35.185Z,100427.03
2022-09-09T05:56:08.098Z,100424.09
2022-09-09T05:58:37.654Z,100428.06
2022-09-09T06:01:11.391Z,100418.03
2022-09-09T06:03:41.875Z,100428.03
2022-09-09T06:06:13.695Z,100434.72
2022-09-09T06:08:45.321Z,100406.63
2022-09-09T06:11:20.634Z,100447.56
2022-09-09T06:13:51.468Z,100438.63
2022-09-09T06:16:24.143Z,100429.13
2022-09-09T06:18:54.101Z,100424.94
2022-09-09T06:21:24.855Z,100433.47
2022-09-09T06:24:00.659Z,100423.44
2022-09-09T06:26:32.746Z,100432.19
2022-09-09T06:29:05.029Z,100436.38
2022-09-09T06:31:35.902Z,100433.75
2022-09-09T06:34:14.449Z,100415.22
2022-09-09T06:36:48.004Z,100435.81
2022-09-09T06:39:19.297Z,100434.44
2022-09-09T06:41:54.202Z,100435.63
2022-09-09T06:44:49.209Z,100439.94
2022-09-09T06:47:35.915Z,100439.44
2022-09-09T06:50:07.385Z,100450.09
2022-09-09T06:52:37.474Z,100307.75
2022-09-09T06:55:08.076Z,100406.84
2022-09-09T06:57:39.837Z,100441.75
2022-09-09T07:00:15.754Z,100443.22
2022-09-09T07:02:46.818Z,100441.88
2022-09-09T07:05:17.018Z,100432.72
2022-09-09T07:07:47.705Z,100443.03
2022-09-09T07:10:18.848Z,100438.00
2022-09-09T07:12:52.906Z,100443.59
2022-09-09T07:15:24.132Z,100446.47
2022-09-09T07:17:54.151Z,100439.69
2022-09-09T07:20:23.603Z,100450.19
2022-09-09T07:22:57.691Z,100425.50
2022-09-09T07:25:27.960Z,100437.50
2022-09-09T07:28:01.329Z,100436.38
2022-09-09T07:30:30.605Z,100439.25
2022-09-09T07:33:00.858Z,100432.91
2022-09-09T07:35:30.662Z,100432.56
2022-09-09T07:38:00.504Z,100436.56
2022-09-09T07:40:30.408Z,100433.09
2022-09-09T07:43:00.246Z,100440.25
2022-09-09T07:45:33.712Z,100438.13
2022-09-09T07:48:03.039Z,100437.03
2022-09-09T07:50:33.304Z,100436.00
2022-09-09T07:53:03.511Z,100442.44
2022-09-09T07:55:32.906Z,100435.03
2022-09-09T07:58:02.210Z,100441.13
2022-09-09T08:00:34.330Z,100442.66
2022-09-09T08:03:07.257Z,100433.84
2022-09-09T08:05:36.834Z,100438.84
2022-09-09T08:08:06.267Z,100440.06
2022-09-09T08:10:35.778Z,100434.81
2022-09-09T08:13:17.797Z,100433.13
2022-09-09T08:15:51.475Z,100439.09
2022-09-09T08:18:21.068Z,100436.47
2022-09-09T08:20:53.002Z,100432.66
2022-09-09T08:23:22.375Z,100444.59
2022-09-09T08:25:51.470Z,100436.47
2022-09-09T08:28:20.774Z,100437.44
2022-09-09T08:30:52.208Z,100444.72
2022-09-09T08:33:21.639Z,100413.75
2022-09-09T08:35:53.884Z,100434.69
2022-09-09T08:38:23.257Z,100441.13
2022-09-09T08:41:00.510Z,100459.88
2022-09-09T08:43:31.796Z,100434.53
2022-09-09T08:46:09.922Z,100447.69
2022-09-09T08:48:50.455Z,100435.16
2022-09-09T08:51:20.631Z,100447.19
2022-09-09T08:53:59.043Z,100404.25
2022-09-09T08:56:34.885Z,100446.59
2022-09-09T08:59:06.375Z,100448.28
2022-09-09T09:01:55.308Z,100450.44
2022-09-09T09:04:41.289Z,100429.53
2022-09-09T09:07:22.319Z,100417.09
2022-09-09T09:10:00.703Z,100424.38
2022-09-09T09:12:37.989Z,100452.47
2022-09-09T09:15:18.280Z,100452.81
2022-09-09T09:17:49.800Z,100459.88
2022-09-09T09:20:23.825Z,100459.28
2022-09-09T09:22:56.805Z,100459.41
2022-09-09T09:25:29.618Z,100457.97
2022-09-09T09:28:12.936Z,100459.41
2022-09-09T09:30:49.742Z,100458.56
2022-09-09T09:33:24.976Z,100458.91
2022-09-09T09:35:54.741Z,100463.31
2022-09-09T09:41:16.399Z,100456.75
2022-09-09T09:43:56.625Z,100459.41
2022-09-09T09:46:28.360Z,100452.84
2022-09-09T09:49:07.146Z,100448.78
2022-09-09T09:51:37.822Z,100448.19
2022-09-09T09:54:17.190Z,100419.03
2022-09-09T09:56:50.478Z,100449.69
2022-09-09T09:59:41.616Z,100450.53
2022-09-09T10:02:25.968Z,100446.09
2022-09-09T10:05:08.062Z,100440.97
2022-09-09T10:07:40.128Z,100446.59
2022-09-09T10:10:16.503Z,100419.13
2022-09-09T10:13:00.431Z,100441.34
2022-09-09T10:15:38.023Z,100422.59
2022-09-09T10:18:23.411Z,100443.06
2022-09-09T10:21:03.335Z,100440.25
2022-09-09T10:23:49.204Z,100432.00
2022-09-09T10:26:34.376Z,100424.94
2022-09-09T10:29:39.394Z,100432.84
2022-09-09T10:32:29.701Z,100422.72
2022-09-09T10:35:05.253Z,100423.13
2022-09-09T10:37:56.656Z,100426.69
2022-09-09T10:40:34.173Z,100418.81
2022-09-09T10:43:16.350Z,100424.81
2022-09-09T10:45:59.656Z,100432.38
2022-09-09T10:48:33.333Z,100431.78
2022-09-09T10:51:19.805Z,100433.25
2022-09-09T10:54:00.721Z,100426.31
2022-09-09T10:56:31.306Z,100421.63
2022-09-09T10:59:07.172Z,100425.44
2022-09-09T11:01:43.173Z,100426.22
2022-09-09T11:04:21.162Z,100414.56
2022-09-09T11:06:56.702Z,100392.09
2022-09-09T11:09:33.080Z,100439.09
2022-09-09T11:12:03.803Z,100433.91
2022-09-09T11:14:39.573Z,100440.22
2022-09-09T11:17:13.367Z,100448.00
2022-09-09T11:19:44.731Z,100434.75
2022-09-09T11:22:24.458Z,100437.97
2022-09-09T11:24:59.162Z,100443.59
2022-09-09T11:27:34.077Z,100433.91
2022-09-09T11:30:37.700Z,100442.81
2022-09-09T11:33:24.825Z,100438.97
2022-09-09T11:36:07.426Z,100426.53
2022-09-09T11:38:41.309Z,100446.19
2022-09-09T11:41:19.538Z,100446.50
2022-09-09T11:43:53.680Z,100353.81
2022-09-09T11:46:34.696Z,100435.28
2022-09-09T11:49:06.786Z,100435.31
2022-09-09T11:51:36.691Z,100431.91
2022-09-09T11:54:33.272Z,100436.63
2022-09-09T11:57:06.667Z,100442.66
2022-09-09T11:59:36.541Z,100432.78
2022-09-09T12:02:17.037Z,100297.31
2022-09-09T12:04:52.230Z,100404.28
2022-09-09T12:07:33.363Z,100456.94
2022-09-09T12:10:05.483Z,100289.88
2022-09-09T12:12:43.047Z,100432.31
2022-09-09T12:15:30.128Z,100426.13
2022-09-09T12:18:03.903Z,100440.28
2022-09-09T12:20:37.991Z,100432.47
2022-09-09T12:23:26.194Z,100440.56
2022-09-09T12:26:10.010Z,100439.25
2022-09-09T12:28:54.485Z,100433.47
2022-09-09T12:31:29.438Z,100438.66
2022-09-09T12:34:12.005Z,100424.53
2022-09-09T12:36:48.697Z,100430.50
2022-09-09T12:39:25.374Z,100434.53
2022-09-09T12:41:58.559Z,100437.41
2022-09-09T12:44:30.211Z,100436.16
2022-09-09T12:47:02.244Z,100439.75
2022-09-09T12:49:35.563Z,100445.94
2022-09-09T12:52:09.031Z,100435.66
2022-09-09T12:54:45.729Z,100435.00
2022-09-09T12:57:16.331Z,100444.81
2022-09-09T12:59:47.333Z,100450.31
2022-09-09T13:02:23.756Z,100446.25
2022-09-09T13:04:53.992Z,100432.13
2022-09-09T13:07:26.637Z,100437.16
2022-09-09T13:09:55.975Z,100431.91
2022-09-09T13:12:26.001Z,100436.88
2022-09-09T13:14:58.874Z,100429.25
2022-09-09T13:17:30.060Z,100434.41
2022-09-09T13:19:59.615Z,100438.03
2022-09-09T13:22:33.934Z,100435.50
2022-09-09T13:25:06.075Z,100433.63
2022-09-09T13:27:39.742Z,100428.84
2022-09-09T13:30:28.357Z,100439.75
2022-09-09T13:33:21.530Z,100417.81
2022-09-09T13:35:52.833Z,100437.63
2022-09-09T13:38:27.523Z,100441.00
2022-09-09T13:41:03.409Z,100439.13
2022-09-09T13:43:37.128Z,100443.28
2022-09-09T13:46:28.744Z,100450.00
2022-09-09T13:48:58.948Z,100441.59
2022-09-09T13:51:38.191Z,100451.56
2022-09-09T13:54:08.381Z,100445.41
2022-09-09T13:56:41.831Z,100445.47
2022-09-09T13:59:15.085Z,100444.53
2022-09-09T14:01:45.648Z,100438.66
2022-09-09T14:04:16.778Z,100441.56
2022-09-09T14:06:46.174Z,100434.28
2022-09-09T14:09:18.129Z,100428.94
2022-09-09T14:11:47.937Z,100408.72
2022-09-09T14:14:17.208Z,100424.75
2022-09-09T14:16:48.280Z,100432.16
2022-09-09T14:19:17.655Z,100435.09
2022-09-09T14:21:46.579Z,100438.31
2022-09-09T14:24:15.664Z,100440.38
2022-09-09T14:26:47.622Z,100431.28
2022-09-09T14:29:16.555Z,100442.84
2022-09-09T14:31:49.059Z,100448.06
2022-09-09T14:34:18.758Z,100443.56
2022-09-09T14:36:48.000Z,100440.75
2022-09-09T14:39:16.910Z,100444.81
2022-09-09T14:41:46.728Z,100460.91
2022-09-09T14:44:17.069Z,100442.38
2022-09-09T14:46:46.364Z,100447.94
2022-09-09T14:49:16.746Z,100441.28
2022-09-09T14:51:45.556Z,100444.13
2022-09-09T14:54:15.880Z,100440.63
2022-09-09T14:56:44.670Z,100450.78
2022-09-09T14:59:14.166Z,100452.66
2022-09-09T15:01:43.270Z,100452.53
2022-09-09T15:04:17.777Z,100453.72
2022-09-09T15:06:49.552Z,100463.31
2022-09-09T15:09:18.375Z,100447.53
2022-09-09T15:11:47.377Z,100455.50
2022-09-09T15:14:16.278Z,100448.41
2022-09-09T15:16:45.460Z,100449.22
2022-09-09T15:19:14.146Z,100457.69
2022-09-09T15:21:44.561Z,100455.69
2022-09-09T15:24:14.784Z,100463.09
2022-09-09T15:26:43.779Z,100465.47
2022-09-09T15:29:12.724Z,100446.31
2022-09-09T15:31:41.756Z,100443.81
2022-09-09T15:34:10.846Z,100450.19
2022-09-09T15:36:41.314Z,100445.25
2022-09-09T15:39:14.041Z,100436.88
2022-09-09T15:41:43.645Z,100449.88
2022-09-09T15:44:15.009Z,100443.63
2022-09-09T15:46:46.023Z,100422.81
2022-09-09T15:49:16.791Z,100398.84
2022-09-09T15:51:47.306Z,100454.44
2022-09-09T15:54:19.176Z,100468.75
2022-09-09T15:56:49.974Z,100469.84
2022-09-09T15:59:19.290Z,100464.84
2022-09-09T16:01:52.344Z,100469.84
2022-09-09T16:04:24.422Z,100469.16
2022-09-09T16:06:53.696Z,100447.66
2022-09-09T16:09:23.877Z,100463.50
2022-09-09T16:11:54.309Z,100450.34
2022-09-09T16:14:23.238Z,100439.31
2022-09-09T16:16:52.696Z,100469.63
2022-09-09T16:19:22.357Z,100472.16
2022-09-09T16:21:52.300Z,100477.84
2022-09-09T16:24:24.696Z,100470.19
2022-09-09T16:26:56.623Z,100485.94
2022-09-09T16:29:28.465Z,100485.06
2022-09-09T16:32:02.695Z,100478.16
2022-09-09T16:34:34.773Z,100487.63
2022-09-09T16:37:04.153Z,100488.03
2022-09-09T16:39:34.559Z,100480.47
2022-09-09T16:42:04.262Z,100482.13
2022-09-09T16:44:35.380Z,100488.03
2022-09-09T16:47:04.373Z,100495.69
2022-09-09T16:49:33.102Z,100491.81
2022-09-09T16:52:01.926Z,100486.28
2022-09-09T16:54:30.826Z,100493.91
2022-09-09T16:57:02.187Z,100493.66
2022-09-09T16:59:32.743Z,100493.00
2022-09-09T17:02:01.656Z,100490.03
2022-09-09T17:04:32.104Z,100495.28
2022-09-09T17:07:01.653Z,100499.25
2022-09-09T17:09:32.443Z,100495.78
2022-09-09T17:12:03.004Z,100505.97
2022-09-09T17:14:33.242Z,100508.91
2022-09-09T17:17:19.235Z,100506.09
2022-09-09T17:19:52.228Z,100509.44
2022-09-09T17:22:22.208Z,100516.75
2022-09-09T17:24:51.299Z,100520.81
2022-09-09T17:27:23.669Z,100521.56
2022-09-09T17:29:54.508Z,100528.00
2022-09-09T17:32:23.433Z,100526.16
2022-09-09T17:34:55.148Z,100531.25
2022-09-09T17:37:26.193Z,100527.81
2022-09-09T17:39:55.322Z,100528.00
2022-09-09T17:42:25.970Z,100530.28
2022-09-09T17:44:54.998Z,100540.47
2022-09-09T17:47:23.815Z,100535.25
2022-09-09T17:49:52.615Z,100537.69
2022-09-09T17:52:22.268Z,100536.50
2022-09-09T17:54:51.525Z,100533.63
2022-09-09T17:57:20.287Z,100541.25
2022-09-09T17:59:50.510Z,100545.06
2022-09-09T18:02:21.969Z,100546.50
2022-09-09T18:04:51.034Z,100542.22
2022-09-09T18:07:20.049Z,100546.91
2022-09-09T18:09:50.281Z,100561.91
2022-09-09T18:12:21.311Z,100559.72
2022-09-09T18:14:52.614Z,100548.59
2022-09-09T18:17:21.365Z,100567.50
2022-09-09T18:19:51.078Z,100567.63
2022-09-09T18:22:19.964Z,100572.03
2022-09-09T18:24:51.942Z,100563.34
2022-09-09T18:27:23.153Z,100556.91
2022-09-09T18:29:55.633Z,100564.72
2022-09-09T18:32:27.435Z,100565.22
2022-09-09T18:34:59.191Z,100573.97
2022-09-09T18:37:27.857Z,100569.41
2022-09-09T18:39:56.571Z,100571.19
2022-09-09T18:42:28.269Z,100565.75
2022-09-09T18:44:58.410Z,100573.03
2022-09-09T18:47:27.237Z,100574.13
2022-09-09T18:49:56.381Z,100574.13
2022-09-09T18:52:25.728Z,100571.00
2022-09-09T18:54:54.474Z,100578.06
2022-09-09T18:57:23.280Z,100579.97
2022-09-09T18:59:54.700Z,100594.22
2022-09-09T19:02:25.070Z,100591.22
2022-09-09T19:04:53.914Z,100600.19
2022-09-09T19:07:22.765Z,100605.63
2022-09-09T19:09:51.646Z,100604.59
2022-09-09T19:12:21.146Z,100603.50
2022-09-09T19:14:50.998Z,100608.56
2022-09-09T19:17:20.438Z,100615.97
2022-09-09T19:19:51.634Z,100614.88
2022-09-09T19:22:21.100Z,100613.47
2022-09-09T19:24:51.529Z,100613.31
2022-09-09T19:27:20.716Z,100608.16
2022-09-09T19:29:52.987Z,100609.25
2022-09-09T19:35:16.666Z,100597.53
2022-09-09T19:37:45.988Z,100628.59
2022-09-09T19:40:15.460Z,100622.78
2022-09-09T19:42:44.982Z,100628.41
2022-09-09T19:45:14.265Z,100622.41
2022-09-09T19:47:44.091Z,100637.72
2022-09-09T19:50:13.333Z,100641.00
2022-09-09T19:52:43.826Z,100649.13
2022-09-09T19:55:13.549Z,100642.97
2022-09-09T19:57:42.942Z,100600.25
2022-09-09T20:00:13.196Z,100625.31
2022-09-09T20:02:57.998Z,100649.50
2022-09-09T20:05:33.503Z,100648.19
2022-09-09T20:08:04.325Z,100644.38
2022-09-09T20:10:33.313Z,100646.41
2022-09-09T20:13:02.413Z,100643.03
2022-09-09T20:15:31.317Z,100653.81
2022-09-09T20:18:00.379Z,100649.41
2022-09-09T20:20:29.458Z,100653.34
2022-09-09T20:22:59.398Z,100654.59
2022-09-09T20:25:29.816Z,100655.56
2022-09-09T20:27:58.890Z,100658.22
2022-09-09T20:30:27.887Z,100665.19
2022-09-09T20:32:57.221Z,100670.88
2022-09-09T20:35:27.621Z,100672.09
2022-09-09T20:37:58.702Z,100675.66
2022-09-09T20:40:30.362Z,100680.25
2022-09-09T20:43:03.871Z,100681.06
2022-09-09T20:45:38.165Z,100675.91
2022-09-09T20:48:07.521Z,100670.28
2022-09-09T20:50:36.865Z,100675.06
2022-09-09T20:53:06.381Z,100663.94
2022-09-09T20:55:35.565Z,100648.50
2022-09-09T20:58:07.148Z,100662.66
2022-09-09T21:00:36.071Z,100659.03
2022-09-09T21:03:05.642Z,100642.63
2022-09-09T21:05:35.212Z,100664.41
2022-09-09T21:08:04.985Z,100667.00
2022-09-09T21:10:33.914Z,100663.56
2022-09-09T21:13:06.221Z,100660.25
2022-09-09T21:15:35.443Z,100652.00
2022-09-09T21:18:04.954Z,100651.09
2022-09-09T21:20:34.362Z,100556.59
2022-09-09T21:23:03.739Z,100652.56
2022-09-09T21:25:35.412Z,100657.47
2022-09-09T21:28:07.627Z,100650.47
2022-09-09T21:30:42.023Z,100654.38
2022-09-09T21:33:13.476Z,100651.69
2022-09-09T21:35:43.242Z,100651.00
2022-09-09T21:38:16.371Z,100648.38
2022-09-09T21:40:45.931Z,100632.78
2022-09-09T21:43:16.792Z,100633.84
2022-09-09T21:45:46.916Z,100637.88
2022-09-09T21:48:18.602Z,100649.41
2022-09-09T21:50:49.048Z,100660.22
2022-09-09T21:53:20.454Z,100660.47
2022-09-09T21:55:50.652Z,100658.91
2022-09-09T21:58:21.407Z,100662.44
2022-09-09T22:00:50.881Z,100663.47
2022-09-09T22:03:20.269Z,100659.69
2022-09-09T22:05:53.710Z,100673.41
2022-09-09T22:08:23.757Z,100665.25
2022-09-09T22:10:53.269Z,100651.59
2022-09-09T22:13:23.733Z,100662.84
2022-09-09T22:15:52.993Z,100656.44
2022-09-09T22:18:22.334Z,100647.81
2022-09-09T22:20:55.521Z,100651.84
2022-09-09T22:23:24.590Z,100661.41
2022-09-09T22:25:54.996Z,100658.44
2022-09-09T22:28:25.578Z,100668.72
2022-09-09T22:30:55.162Z,100673.38
2022-09-09T22:33:24.504Z,100674.22
2022-09-09T22:35:53.808Z,100660.06
2022-09-09T22:38:23.262Z,100670.84
2022-09-09T22:40:52.813Z,100671.44
2022-09-09T22:43:23.421Z,100674.03
2022-09-09T22:45:54.283Z,100672.22
2022-09-09T22:48:24.837Z,100676.97
2022-09-09T22:50:54.437Z,100678.44
2022-09-09T22:53:23.521Z,100682.34
2022-09-09T22:55:59.433Z,100681.28
2022-09-09T22:58:29.503Z,100677.44
2022-09-09T23:01:01.380Z,100674.84
2022-09-09T23:03:33.282Z,100686.13
2022-09-09T23:06:04.579Z,100690.78
2022-09-09T23:08:36.702Z,100689.03
2022-09-09T23:11:09.337Z,100658.09
2022-09-09T23:13:40.044Z,100683.13
2022-09-09T23:16:16.157Z,100685.81
2022-09-09T23:18:45.889Z,100673.97
2022-09-09T23:21:16.643Z,100675.63
2022-09-09T23:23:46.813Z,100667.97
2022-09-09T23:26:21.066Z,100669.06
2022-09-09T23:28:51.894Z,100666.38
2022-09-09T23:31:25.188Z,100654.66
2022-09-09T23:33:55.590Z,100656.63
2022-09-09T23:36:25.976Z,100663.16
2022-09-09T23:38:56.413Z,100650.00
2022-09-09T23:41:25.893Z,100652.06
2022-09-09T23:43:56.255Z,100656.25
2022-09-09T23:46:28.836Z,100655.81
2022-09-09T23:48:59.621Z,100657.19
2022-09-09T23:51:31.117Z,100644.69
2022-09-09T23:54:04.943Z,100655.63
2022-09-09T23:56:37.257Z,100661.69
2022-09-09T23:59:07.524Z,100655.97
